sensor_id;sensor_type;location;lat;lon;timestamp;pressure;altitude;pressure_sealevel;temperature;humidity
60373;BME280;46216;52.220;5.134;2022-08-11T00:01:36;102500.03;;;21.19;100.00
60373;BME280;46216;52.220;5.134;2022-08-11T00:04:08;102507.91;;;21.13;100.00
60373;BME280;46216;52.220;5.134;2022-08-11T00:06:35;102496.59;;;21.08;100.00
60373;BME280;46216;52.220;5.134;2022-08-11T00:09:05;102506.88;;;21.04;100.00
60373;BME280;46216;52.220;5.134;2022-08-11T00:11:40;102507.63;;;21.06;100.00
60373;BME280;46216;52.220;5.134;2022-08-11T00:14:17;102506.03;;;21.03;100.00
60373;BME280;46216;52.220;5.134;2022-08-11T00:16:52;102502.59;;;21.01;100.00
60373;BME280;46216;52.220;5.134;2022-08-11T00:19:31;102504.72;;;20.98;100.00
60373;BME280;46216;52.220;5.134;2022-08-11T00:21:58;102516.56;;;20.97;100.00
60373;BME280;46216;52.220;5.134;2022-08-11T00:24:31;102512.84;;;20.98;100.00
60373;BME280;46216;52.220;5.134;2022-08-11T00:26:57;102516.69;;;20.95;100.00
60373;BME280;46216;52.220;5.134;2022-08-11T00:29:22;102514.13;;;20.94;100.00
60373;BME280;46216;52.220;5.134;2022-08-11T00:31:54;102518.56;;;20.95;100.00
60373;BME280;46216;52.220;5.134;2022-08-11T00:34:25;102510.69;;;20.92;100.00
60373;BME280;46216;52.220;5.134;2022-08-11T00:36:54;102517.13;;;20.91;100.00
60373;BME280;46216;52.220;5.134;2022-08-11T00:39:22;102506.13;;;20.83;100.00
60373;BME280;46216;52.220;5.134;2022-08-11T00:45:00;102509.38;;;20.76;100.00
60373;BME280;46216;52.220;5.134;2022-08-11T01:04:55;102517.84;;;20.52;100.00
60373;BME280;46216;52.220;5.134;2022-08-11T01:07:59;102517.56;;;20.55;100.00
60373;BME280;46216;52.220;5.134;2022-08-11T01:35:20;102506.19;;;20.41;100.00
60373;BME280;46216;52.220;5.134;2022-08-11T01:38:06;102496.63;;;20.37;100.00
60373;BME280;46216;52.220;5.134;2022-08-11T01:46:31;102503.06;;;20.36;100.00
60373;BME280;46216;52.220;5.134;2022-08-11T01:54:51;102502.03;;;20.37;100.00
60373;BME280;46216;52.220;5.134;2022-08-11T01:57:34;102495.59;;;20.28;100.00
60373;BME280;46216;52.220;5.134;2022-08-11T02:00:06;102499.50;;;20.35;100.00
60373;BME280;46216;52.220;5.134;2022-08-11T02:02:40;102500.59;;;20.32;100.00
60373;BME280;46216;52.220;5.134;2022-08-11T02:11:21;102492.56;;;20.21;100.00
60373;BME280;46216;52.220;5.134;2022-08-11T02:25:11;102492.63;;;20.10;100.00
60373;BME280;46216;52.220;5.134;2022-08-11T02:27:53;102490.53;;;20.14;100.00
60373;BME280;46216;52.220;5.134;2022-08-11T02:30:23;102483.25;;;20.14;100.00
60373;BME280;46216;52.220;5.134;2022-08-11T02:33:17;102480.09;;;20.09;100.00
60373;BME280;46216;52.220;5.134;2022-08-11T02:36:03;102488.66;;;20.14;100.00
60373;BME280;46216;52.220;5.134;2022-08-11T02:38:59;102484.78;;;20.07;100.00
60373;BME280;46216;52.220;5.134;2022-08-11T02:41:52;102484.44;;;20.00;100.00
60373;BME280;46216;52.220;5.134;2022-08-11T02:44:55;102488.63;;;20.04;100.00
60373;BME280;46216;52.220;5.134;2022-08-11T02:50:41;102484.94;;;20.05;100.00
60373;BME280;46216;52.220;5.134;2022-08-11T02:53:22;102482.34;;;20.04;100.00
60373;BME280;46216;52.220;5.134;2022-08-11T02:56:05;102474.38;;;20.02;100.00
60373;BME280;46216;52.220;5.134;2022-08-11T03:01:42;102480.38;;;19.85;100.00
60373;BME280;46216;52.220;5.134;2022-08-11T03:04:14;102478.44;;;19.97;100.00
60373;BME280;46216;52.220;5.134;2022-08-11T03:06:59;102475.16;;;19.93;100.00
60373;BME280;46216;52.220;5.134;2022-08-11T03:09:45;102479.19;;;19.99;100.00
60373;BME280;46216;52.220;5.134;2022-08-11T03:12:24;102476.34;;;20.00;100.00
60373;BME280;46216;52.220;5.134;2022-08-11T03:15:21;102471.59;;;19.93;100.00
60373;BME280;46216;52.220;5.134;2022-08-11T03:18:17;102473.97;;;19.86;100.00
60373;BME280;46216;52.220;5.134;2022-08-11T03:21:23;102464.47;;;19.92;100.00
60373;BME280;46216;52.220;5.134;2022-08-11T03:24:03;102468.03;;;19.92;100.00
60373;BME280;46216;52.220;5.134;2022-08-11T03:29:29;102466.53;;;19.78;100.00
60373;BME280;46216;52.220;5.134;2022-08-11T03:32:01;102466.38;;;19.80;100.00
60373;BME280;46216;52.220;5.134;2022-08-11T03:34:31;102468.50;;;19.76;100.00
60373;BME280;46216;52.220;5.134;2022-08-11T03:52:31;102464.16;;;19.53;100.00
60373;BME280;46216;52.220;5.134;2022-08-11T03:58:06;102467.16;;;19.50;100.00
60373;BME280;46216;52.220;5.134;2022-08-11T04:09:52;102461.78;;;19.38;100.00
60373;BME280;46216;52.220;5.134;2022-08-11T04:18:20;102471.28;;;19.33;100.00
60373;BME280;46216;52.220;5.134;2022-08-11T04:21:25;102464.13;;;19.32;100.00
60373;BME280;46216;52.220;5.134;2022-08-11T04:24:31;102459.31;;;19.35;100.00
60373;BME280;46216;52.220;5.134;2022-08-11T04:27:30;102458.72;;;19.32;100.00
60373;BME280;46216;52.220;5.134;2022-08-11T04:32:40;102460.53;;;19.43;100.00
60373;BME280;46216;52.220;5.134;2022-08-11T04:35:21;102448.50;;;19.35;100.00
60373;BME280;46216;52.220;5.134;2022-08-11T05:13:06;102452.72;;;19.28;100.00
60373;BME280;46216;52.220;5.134;2022-08-11T05:15:56;102446.53;;;19.37;100.00
60373;BME280;46216;52.220;5.134;2022-08-11T05:18:54;102450.97;;;19.38;100.00
60373;BME280;46216;52.220;5.134;2022-08-11T05:21:41;102455.91;;;19.33;100.00
60373;BME280;46216;52.220;5.134;2022-08-11T05:24:42;102453.28;;;19.43;100.00
60373;BME280;46216;52.220;5.134;2022-08-11T05:27:32;102446.22;;;19.52;100.00
60373;BME280;46216;52.220;5.134;2022-08-11T05:30:19;102448.06;;;19.51;100.00
60373;BME280;46216;52.220;5.134;2022-08-11T05:33:10;102457.53;;;19.57;100.00
60373;BME280;46216;52.220;5.134;2022-08-11T05:36:30;102452.56;;;19.62;100.00
60373;BME280;46216;52.220;5.134;2022-08-11T05:39:02;102460.44;;;19.65;100.00
60373;BME280;46216;52.220;5.134;2022-08-11T05:41:48;102459.34;;;19.68;100.00
60373;BME280;46216;52.220;5.134;2022-08-11T05:44:34;102463.50;;;19.72;100.00
60373;BME280;46216;52.220;5.134;2022-08-11T05:47:23;102458.66;;;19.75;100.00
60373;BME280;46216;52.220;5.134;2022-08-11T05:50:10;102460.59;;;19.84;100.00
60373;BME280;46216;52.220;5.134;2022-08-11T05:52:55;102463.41;;;19.83;100.00
60373;BME280;46216;52.220;5.134;2022-08-11T05:55:41;102460.97;;;20.01;100.00
60373;BME280;46216;52.220;5.134;2022-08-11T05:58:32;102457.00;;;20.05;100.00
60373;BME280;46216;52.220;5.134;2022-08-11T06:00:58;102461.69;;;20.03;100.00
60373;BME280;46216;52.220;5.134;2022-08-11T06:03:26;102448.34;;;20.11;100.00
60373;BME280;46216;52.220;5.134;2022-08-11T06:05:53;102452.81;;;20.22;100.00
60373;BME280;46216;52.220;5.134;2022-08-11T06:08:29;102454.84;;;20.29;100.00
60373;BME280;46216;52.220;5.134;2022-08-11T06:11:00;102458.00;;;20.35;100.00
60373;BME280;46216;52.220;5.134;2022-08-11T06:13:26;102454.75;;;20.41;100.00
60373;BME280;46216;52.220;5.134;2022-08-11T06:15:52;102457.44;;;20.41;100.00
60373;BME280;46216;52.220;5.134;2022-08-11T06:18:20;102455.78;;;20.49;100.00
60373;BME280;46216;52.220;5.134;2022-08-11T06:20:55;102453.94;;;20.50;100.00
60373;BME280;46216;52.220;5.134;2022-08-11T06:23:24;102458.41;;;20.61;100.00
60373;BME280;46216;52.220;5.134;2022-08-11T06:25:54;102454.69;;;20.62;100.00
60373;BME280;46216;52.220;5.134;2022-08-11T06:28:32;102454.44;;;20.74;100.00
60373;BME280;46216;52.220;5.134;2022-08-11T06:30:58;102456.88;;;20.77;100.00
60373;BME280;46216;52.220;5.134;2022-08-11T06:33:36;102457.06;;;20.86;100.00
60373;BME280;46216;52.220;5.134;2022-08-11T06:36:31;102441.09;;;20.92;100.00
60373;BME280;46216;52.220;5.134;2022-08-11T06:39:32;102446.78;;;20.99;100.00
60373;BME280;46216;52.220;5.134;2022-08-11T06:44:31;102443.69;;;21.13;100.00
60373;BME280;46216;52.220;5.134;2022-08-11T06:47:05;102442.53;;;21.16;100.00
60373;BME280;46216;52.220;5.134;2022-08-11T06:49:36;102449.97;;;21.23;100.00
60373;BME280;46216;52.220;5.134;2022-08-11T06:52:35;102431.84;;;21.34;100.00
60373;BME280;46216;52.220;5.134;2022-08-11T06:55:11;102432.13;;;21.50;100.00
60373;BME280;46216;52.220;5.134;2022-08-11T06:57:38;102427.13;;;21.55;100.00
60373;BME280;46216;52.220;5.134;2022-08-11T07:00:24;102424.25;;;21.66;100.00
60373;BME280;46216;52.220;5.134;2022-08-11T07:03:05;102432.25;;;21.78;100.00
60373;BME280;46216;52.220;5.134;2022-08-11T07:11:45;102436.66;;;21.79;100.00
60373;BME280;46216;52.220;5.134;2022-08-11T07:14:33;102434.06;;;21.87;100.00
60373;BME280;46216;52.220;5.134;2022-08-11T07:17:21;102432.19;;;21.97;100.00
60373;BME280;46216;52.220;5.134;2022-08-11T07:19:52;102420.72;;;22.03;100.00
60373;BME280;46216;52.220;5.134;2022-08-11T07:22:38;102424.72;;;22.09;100.00
60373;BME280;46216;52.220;5.134;2022-08-11T07:25:35;102432.72;;;22.10;100.00
60373;BME280;46216;52.220;5.134;2022-08-11T07:28:24;102433.84;;;22.17;100.00
60373;BME280;46216;52.220;5.134;2022-08-11T07:31:12;102433.25;;;22.24;100.00
60373;BME280;46216;52.220;5.134;2022-08-11T07:33:46;102432.97;;;22.27;100.00
60373;BME280;46216;52.220;5.134;2022-08-11T07:36:14;102429.78;;;22.31;100.00
60373;BME280;46216;52.220;5.134;2022-08-11T07:38:44;102428.91;;;22.40;100.00
60373;BME280;46216;52.220;5.134;2022-08-11T07:41:15;102428.59;;;22.43;100.00
60373;BME280;46216;52.220;5.134;2022-08-11T07:43:43;102429.41;;;22.54;100.00
60373;BME280;46216;52.220;5.134;2022-08-11T07:46:11;102423.91;;;22.63;100.00
60373;BME280;46216;52.220;5.134;2022-08-11T07:48:56;102427.91;;;22.69;100.00
60373;BME280;46216;52.220;5.134;2022-08-11T07:51:42;102422.38;;;22.79;100.00
60373;BME280;46216;52.220;5.134;2022-08-11T07:54:29;102431.31;;;22.89;100.00
60373;BME280;46216;52.220;5.134;2022-08-11T07:56:55;102426.31;;;22.94;100.00
60373;BME280;46216;52.220;5.134;2022-08-11T07:59:21;102420.94;;;23.02;100.00
60373;BME280;46216;52.220;5.134;2022-08-11T08:02:08;102414.13;;;23.16;100.00
60373;BME280;46216;52.220;5.134;2022-08-11T08:04:53;102416.38;;;23.21;100.00
60373;BME280;46216;52.220;5.134;2022-08-11T08:07:38;102403.69;;;23.29;100.00
60373;BME280;46216;52.220;5.134;2022-08-11T08:10:22;102408.78;;;23.50;100.00
60373;BME280;46216;52.220;5.134;2022-08-11T08:13:07;102407.41;;;23.46;100.00
60373;BME280;46216;52.220;5.134;2022-08-11T08:15:52;102414.00;;;23.61;100.00
60373;BME280;46216;52.220;5.134;2022-08-11T08:18:37;102416.13;;;23.68;100.00
60373;BME280;46216;52.220;5.134;2022-08-11T08:21:05;102412.06;;;23.72;100.00
60373;BME280;46216;52.220;5.134;2022-08-11T08:23:46;102410.09;;;23.82;100.00
60373;BME280;46216;52.220;5.134;2022-08-11T08:26:13;102414.72;;;23.90;100.00
60373;BME280;46216;52.220;5.134;2022-08-11T08:29:05;102408.66;;;24.04;100.00
60373;BME280;46216;52.220;5.134;2022-08-11T08:31:50;102417.25;;;24.17;100.00
60373;BME280;46216;52.220;5.134;2022-08-11T08:34:17;102414.72;;;24.24;100.00
60373;BME280;46216;52.220;5.134;2022-08-11T08:36:50;102414.09;;;24.30;100.00
60373;BME280;46216;52.220;5.134;2022-08-11T08:39:20;102399.75;;;24.28;100.00
60373;BME280;46216;52.220;5.134;2022-08-11T08:41:51;102403.59;;;24.43;100.00
60373;BME280;46216;52.220;5.134;2022-08-11T08:44:20;102399.91;;;24.61;100.00
60373;BME280;46216;52.220;5.134;2022-08-11T08:46:49;102408.44;;;24.66;100.00
60373;BME280;46216;52.220;5.134;2022-08-11T08:49:18;102399.91;;;24.69;100.00
60373;BME280;46216;52.220;5.134;2022-08-11T08:51:48;102395.19;;;24.87;100.00
60373;BME280;46216;52.220;5.134;2022-08-11T08:54:20;102390.25;;;24.99;100.00
60373;BME280;46216;52.220;5.134;2022-08-11T08:56:48;102397.25;;;25.01;100.00
60373;BME280;46216;52.220;5.134;2022-08-11T08:59:20;102392.19;;;25.15;100.00
60373;BME280;46216;52.220;5.134;2022-08-11T09:01:52;102379.56;;;25.30;100.00
60373;BME280;46216;52.220;5.134;2022-08-11T09:04:20;102383.47;;;25.44;100.00
60373;BME280;46216;52.220;5.134;2022-08-11T09:06:46;102378.53;;;25.39;100.00
60373;BME280;46216;52.220;5.134;2022-08-11T09:09:12;102377.84;;;25.45;100.00
60373;BME280;46216;52.220;5.134;2022-08-11T09:11:41;102379.72;;;25.53;100.00
60373;BME280;46216;52.220;5.134;2022-08-11T09:14:18;102380.22;;;25.57;100.00
60373;BME280;46216;52.220;5.134;2022-08-11T09:16:45;102378.50;;;25.72;100.00
60373;BME280;46216;52.220;5.134;2022-08-11T09:19:16;102377.81;;;25.78;100.00
60373;BME280;46216;52.220;5.134;2022-08-11T09:21:44;102373.34;;;25.93;100.00
60373;BME280;46216;52.220;5.134;2022-08-11T09:24:30;102371.91;;;26.14;100.00
60373;BME280;46216;52.220;5.134;2022-08-11T09:27:14;102372.22;;;26.19;100.00
60373;BME280;46216;52.220;5.134;2022-08-11T09:29:40;102365.19;;;26.25;100.00
60373;BME280;46216;52.220;5.134;2022-08-11T09:32:05;102366.91;;;26.26;100.00
60373;BME280;46216;52.220;5.134;2022-08-11T09:34:34;102363.91;;;26.35;100.00
60373;BME280;46216;52.220;5.134;2022-08-11T09:37:02;102365.44;;;26.46;100.00
60373;BME280;46216;52.220;5.134;2022-08-11T09:39:47;102352.56;;;26.55;100.00
60373;BME280;46216;52.220;5.134;2022-08-11T09:42:32;102349.06;;;26.69;100.00
60373;BME280;46216;52.220;5.134;2022-08-11T09:45:17;102348.69;;;26.72;100.00
60373;BME280;46216;52.220;5.134;2022-08-11T09:47:43;102352.25;;;26.81;100.00
60373;BME280;46216;52.220;5.134;2022-08-11T09:50:10;102355.38;;;26.93;100.00
60373;BME280;46216;52.220;5.134;2022-08-11T09:52:39;102352.78;;;26.99;100.00
60373;BME280;46216;52.220;5.134;2022-08-11T09:55:06;102356.00;;;27.03;100.00
60373;BME280;46216;52.220;5.134;2022-08-11T09:57:38;102349.31;;;27.05;100.00
60373;BME280;46216;52.220;5.134;2022-08-11T10:00:28;102348.72;;;27.18;100.00
60373;BME280;46216;52.220;5.134;2022-08-11T10:02:54;102354.13;;;27.41;100.00
60373;BME280;46216;52.220;5.134;2022-08-11T10:05:20;102355.31;;;27.62;100.00
60373;BME280;46216;52.220;5.134;2022-08-11T10:08:06;102351.84;;;27.82;100.00
60373;BME280;46216;52.220;5.134;2022-08-11T10:10:35;102345.22;;;27.92;100.00
60373;BME280;46216;52.220;5.134;2022-08-11T10:13:05;102346.25;;;28.05;100.00
60373;BME280;46216;52.220;5.134;2022-08-11T10:15:32;102346.88;;;28.22;100.00
60373;BME280;46216;52.220;5.134;2022-08-11T10:18:08;102346.31;;;28.12;100.00
60373;BME280;46216;52.220;5.134;2022-08-11T10:21:01;102336.31;;;28.19;85.43
60373;BME280;46216;52.220;5.134;2022-08-11T10:23:30;102343.97;;;28.24;93.01
60373;BME280;46216;52.220;5.134;2022-08-11T10:26:18;102335.22;;;28.50;89.76
60373;BME280;46216;52.220;5.134;2022-08-11T10:29:04;102335.09;;;28.80;85.39
60373;BME280;46216;52.220;5.134;2022-08-11T10:31:55;102327.38;;;28.90;86.26
60373;BME280;46216;52.220;5.134;2022-08-11T10:34:39;102324.53;;;28.98;91.04
60373;BME280;46216;52.220;5.134;2022-08-11T10:37:06;102326.47;;;29.04;89.79
60373;BME280;46216;52.220;5.134;2022-08-11T10:39:33;102334.69;;;29.26;89.30
60373;BME280;46216;52.220;5.134;2022-08-11T10:42:00;102331.22;;;29.38;89.67
60373;BME280;46216;52.220;5.134;2022-08-11T10:44:46;102318.94;;;29.41;88.98
60373;BME280;46216;52.220;5.134;2022-08-11T10:47:15;102315.53;;;29.60;85.65
60373;BME280;46216;52.220;5.134;2022-08-11T10:50:10;102310.28;;;29.65;86.76
60373;BME280;46216;52.220;5.134;2022-08-11T10:52:58;102309.94;;;29.82;86.06
60373;BME280;46216;52.220;5.134;2022-08-11T10:55:43;102302.41;;;29.97;83.64
60373;BME280;46216;52.220;5.134;2022-08-11T10:58:29;102311.75;;;30.09;82.49
60373;BME280;46216;52.220;5.134;2022-08-11T11:01:15;102313.44;;;30.10;86.10
60373;BME280;46216;52.220;5.134;2022-08-11T11:03:43;102310.03;;;30.08;86.50
60373;BME280;46216;52.220;5.134;2022-08-11T11:08:45;102295.56;;;30.28;87.36
60373;BME280;46216;52.220;5.134;2022-08-11T11:11:19;102303.47;;;29.96;80.03
60373;BME280;46216;52.220;5.134;2022-08-11T11:13:49;102287.75;;;30.38;86.66
60373;BME280;46216;52.220;5.134;2022-08-11T11:16:37;102291.59;;;30.70;79.25
60373;BME280;46216;52.220;5.134;2022-08-11T11:19:24;102291.22;;;30.93;81.86
60373;BME280;46216;52.220;5.134;2022-08-11T11:21:56;102295.88;;;30.99;79.83
60373;BME280;46216;52.220;5.134;2022-08-11T11:37:41;102279.78;;;31.23;75.11
60373;BME280;46216;52.220;5.134;2022-08-11T11:40:09;102273.00;;;31.39;74.81
60373;BME280;46216;52.220;5.134;2022-08-11T11:42:37;102271.69;;;31.48;74.51
60373;BME280;46216;52.220;5.134;2022-08-11T11:45:03;102279.47;;;31.64;72.69
60373;BME280;46216;52.220;5.134;2022-08-11T11:47:30;102282.38;;;31.83;76.82
60373;BME280;46216;52.220;5.134;2022-08-11T11:49:57;102283.44;;;31.95;73.48
60373;BME280;46216;52.220;5.134;2022-08-11T11:52:23;102278.69;;;32.09;66.12
60373;BME280;46216;52.220;5.134;2022-08-11T11:54:54;102274.41;;;32.13;67.12
60373;BME280;46216;52.220;5.134;2022-08-11T11:57:20;102279.13;;;32.06;65.68
60373;BME280;46216;52.220;5.134;2022-08-11T12:00:07;102276.44;;;31.79;71.38
60373;BME280;46216;52.220;5.134;2022-08-11T12:02:52;102264.44;;;31.60;69.71
60373;BME280;46216;52.220;5.134;2022-08-11T12:05:17;102263.47;;;31.86;67.93
60373;BME280;46216;52.220;5.134;2022-08-11T12:07:44;102263.72;;;32.30;67.66
60373;BME280;46216;52.220;5.134;2022-08-11T12:10:29;102258.53;;;32.40;61.65
60373;BME280;46216;52.220;5.134;2022-08-11T12:12:55;102246.66;;;32.39;65.03
60373;BME280;46216;52.220;5.134;2022-08-11T12:15:42;102249.78;;;32.18;59.86
60373;BME280;46216;52.220;5.134;2022-08-11T12:18:09;102253.13;;;31.88;61.52
60373;BME280;46216;52.220;5.134;2022-08-11T12:20:36;102240.06;;;32.09;62.27
60373;BME280;46216;52.220;5.134;2022-08-11T12:23:01;102241.09;;;32.53;62.39
60373;BME280;46216;52.220;5.134;2022-08-11T12:25:46;102231.72;;;32.54;57.71
60373;BME280;46216;52.220;5.134;2022-08-11T12:28:30;102234.00;;;32.88;60.07
60373;BME280;46216;52.220;5.134;2022-08-11T12:30:56;102219.94;;;32.90;54.58
60373;BME280;46216;52.220;5.134;2022-08-11T12:33:21;102224.75;;;32.76;54.21
60373;BME280;46216;52.220;5.134;2022-08-11T12:35:52;102213.97;;;32.93;54.17
60373;BME280;46216;52.220;5.134;2022-08-11T12:38:20;102208.44;;;32.93;55.02
60373;BME280;46216;52.220;5.134;2022-08-11T12:40:47;102216.72;;;33.36;55.41
60373;BME280;46216;52.220;5.134;2022-08-11T12:43:33;102207.53;;;33.42;40.65
60373;BME280;46216;52.220;5.134;2022-08-11T12:46:21;102212.03;;;33.18;43.08
60373;BME280;46216;52.220;5.134;2022-08-11T12:48:54;102209.28;;;33.37;41.18
60373;BME280;46216;52.220;5.134;2022-08-11T12:51:42;102207.06;;;32.59;42.42
60373;BME280;46216;52.220;5.134;2022-08-11T12:57:24;102201.06;;;33.30;48.02
60373;BME280;46216;52.220;5.134;2022-08-11T13:00:09;102202.44;;;33.03;51.82
60373;BME280;46216;52.220;5.134;2022-08-11T13:02:54;102200.22;;;33.66;46.53
60373;BME280;46216;52.220;5.134;2022-08-11T13:05:39;102194.13;;;33.76;46.06
60373;BME280;46216;52.220;5.134;2022-08-11T13:08:06;102184.78;;;34.07;49.99
60373;BME280;46216;52.220;5.134;2022-08-11T13:10:32;102192.06;;;34.32;47.15
60373;BME280;46216;52.220;5.134;2022-08-11T13:13:17;102196.91;;;34.48;44.47
60373;BME280;46216;52.220;5.134;2022-08-11T13:15:46;102190.13;;;34.32;42.47
60373;BME280;46216;52.220;5.134;2022-08-11T13:18:15;102177.38;;;34.31;42.61
60373;BME280;46216;52.220;5.134;2022-08-11T13:20:42;102177.66;;;34.53;39.16
60373;BME280;46216;52.220;5.134;2022-08-11T13:23:10;102178.16;;;33.90;43.09
60373;BME280;46216;52.220;5.134;2022-08-11T13:25:38;102182.38;;;33.81;46.87
60373;BME280;46216;52.220;5.134;2022-08-11T13:28:05;102178.59;;;33.75;43.62
60373;BME280;46216;52.220;5.134;2022-08-11T13:30:31;102170.25;;;34.24;41.35
60373;BME280;46216;52.220;5.134;2022-08-11T13:33:16;102174.13;;;34.34;39.39
60373;BME280;46216;52.220;5.134;2022-08-11T13:35:44;102172.03;;;34.72;38.70
60373;BME280;46216;52.220;5.134;2022-08-11T13:38:10;102166.22;;;34.73;40.01
60373;BME280;46216;52.220;5.134;2022-08-11T13:40:38;102163.84;;;34.65;36.80
60373;BME280;46216;52.220;5.134;2022-08-11T13:43:04;102169.72;;;34.92;37.20
60373;BME280;46216;52.220;5.134;2022-08-11T13:45:30;102165.59;;;34.95;37.05
60373;BME280;46216;52.220;5.134;2022-08-11T13:47:58;102158.38;;;34.94;35.10
60373;BME280;46216;52.220;5.134;2022-08-11T13:50:26;102167.66;;;34.64;40.05
60373;BME280;46216;52.220;5.134;2022-08-11T13:53:10;102165.03;;;34.93;36.62
60373;BME280;46216;52.220;5.134;2022-08-11T13:55:38;102160.44;;;34.87;34.87
60373;BME280;46216;52.220;5.134;2022-08-11T13:58:04;102156.13;;;34.55;37.82
60373;BME280;46216;52.220;5.134;2022-08-11T14:00:30;102152.75;;;34.77;40.45
60373;BME280;46216;52.220;5.134;2022-08-11T14:02:56;102146.25;;;34.59;39.86
60373;BME280;46216;52.220;5.134;2022-08-11T14:05:26;102153.59;;;34.77;38.71
60373;BME280;46216;52.220;5.134;2022-08-11T14:08:00;102144.78;;;34.80;36.51
60373;BME280;46216;52.220;5.134;2022-08-11T14:10:29;102143.69;;;35.05;39.67
60373;BME280;46216;52.220;5.134;2022-08-11T14:13:15;102138.63;;;35.02;36.69
60373;BME280;46216;52.220;5.134;2022-08-11T14:16:05;102141.63;;;35.12;36.95
60373;BME280;46216;52.220;5.134;2022-08-11T14:18:32;102137.81;;;35.42;40.31
60373;BME280;46216;52.220;5.134;2022-08-11T14:21:01;102131.78;;;35.45;40.18
60373;BME280;46216;52.220;5.134;2022-08-11T14:23:50;102135.94;;;35.30;37.48
60373;BME280;46216;52.220;5.134;2022-08-11T14:26:20;102134.66;;;35.50;39.08
60373;BME280;46216;52.220;5.134;2022-08-11T14:31:22;102130.19;;;35.08;41.52
60373;BME280;46216;52.220;5.134;2022-08-11T14:33:51;102129.69;;;35.23;37.75
60373;BME280;46216;52.220;5.134;2022-08-11T14:36:19;102123.31;;;35.11;39.45
60373;BME280;46216;52.220;5.134;2022-08-11T14:38:46;102120.25;;;35.36;51.61
60373;BME280;46216;52.220;5.134;2022-08-11T14:41:12;102115.56;;;35.25;59.71
60373;BME280;46216;52.220;5.134;2022-08-11T14:43:56;102108.53;;;34.94;45.01
60373;BME280;46216;52.220;5.134;2022-08-11T14:46:42;102112.38;;;35.16;44.06
60373;BME280;46216;52.220;5.134;2022-08-11T14:49:28;102115.25;;;34.98;52.68
60373;BME280;46216;52.220;5.134;2022-08-11T14:51:54;102106.50;;;34.77;53.46
60373;BME280;46216;52.220;5.134;2022-08-11T14:54:28;102110.53;;;34.98;46.05
60373;BME280;46216;52.220;5.134;2022-08-11T14:57:13;102120.19;;;35.19;51.67
60373;BME280;46216;52.220;5.134;2022-08-11T14:59:38;102109.41;;;35.35;47.07
60373;BME280;46216;52.220;5.134;2022-08-11T15:02:04;102102.75;;;35.36;44.14
60373;BME280;46216;52.220;5.134;2022-08-11T15:04:50;102105.63;;;35.41;43.50
60373;BME280;46216;52.220;5.134;2022-08-11T15:07:16;102101.00;;;35.18;47.14
60373;BME280;46216;52.220;5.134;2022-08-11T15:09:42;102102.56;;;35.25;51.76
60373;BME280;46216;52.220;5.134;2022-08-11T15:12:11;102095.28;;;34.96;52.68
60373;BME280;46216;52.220;5.134;2022-08-11T15:14:43;102095.53;;;35.06;56.73
60373;BME280;46216;52.220;5.134;2022-08-11T15:17:29;102087.44;;;35.04;57.75
60373;BME280;46216;52.220;5.134;2022-08-11T15:19:59;102092.56;;;35.24;62.57
60373;BME280;46216;52.220;5.134;2022-08-11T15:22:44;102103.34;;;35.09;63.71
60373;BME280;46216;52.220;5.134;2022-08-11T15:25:29;102092.59;;;35.01;63.42
60373;BME280;46216;52.220;5.134;2022-08-11T15:27:55;102091.44;;;34.73;64.38
60373;BME280;46216;52.220;5.134;2022-08-11T15:30:42;102089.75;;;34.84;64.51
60373;BME280;46216;52.220;5.134;2022-08-11T15:33:29;102085.53;;;34.81;66.47
60373;BME280;46216;52.220;5.134;2022-08-11T15:36:14;102083.50;;;34.42;69.97
60373;BME280;46216;52.220;5.134;2022-08-11T15:39:08;102078.31;;;34.22;66.45
60373;BME280;46216;52.220;5.134;2022-08-11T15:44:58;102067.38;;;34.38;67.91
60373;BME280;46216;52.220;5.134;2022-08-11T15:47:55;102064.41;;;34.52;70.31
60373;BME280;46216;52.220;5.134;2022-08-11T15:50:25;102060.63;;;34.23;69.85
60373;BME280;46216;52.220;5.134;2022-08-11T15:52:58;102057.72;;;34.06;66.90
60373;BME280;46216;52.220;5.134;2022-08-11T15:55:26;102060.03;;;34.09;69.97
60373;BME280;46216;52.220;5.134;2022-08-11T15:57:54;102060.03;;;34.09;69.20
60373;BME280;46216;52.220;5.134;2022-08-11T16:00:41;102057.81;;;33.99;74.05
60373;BME280;46216;52.220;5.134;2022-08-11T16:03:29;102058.06;;;33.56;72.32
60373;BME280;46216;52.220;5.134;2022-08-11T16:06:15;102053.50;;;33.50;74.89
60373;BME280;46216;52.220;5.134;2022-08-11T16:08:43;102063.19;;;33.22;79.77
60373;BME280;46216;52.220;5.134;2022-08-11T16:11:09;102063.59;;;33.26;74.34
60373;BME280;46216;52.220;5.134;2022-08-11T16:13:39;102051.75;;;33.37;77.55
60373;BME280;46216;52.220;5.134;2022-08-11T16:16:05;102053.94;;;33.16;78.78
60373;BME280;46216;52.220;5.134;2022-08-11T16:18:44;102050.00;;;32.87;78.20
60373;BME280;46216;52.220;5.134;2022-08-11T16:21:27;102054.31;;;32.83;79.35
60373;BME280;46216;52.220;5.134;2022-08-11T16:23:55;102046.66;;;32.85;78.56
60373;BME280;46216;52.220;5.134;2022-08-11T16:26:23;102045.41;;;32.81;83.32
60373;BME280;46216;52.220;5.134;2022-08-11T16:28:54;102042.97;;;32.73;82.99
60373;BME280;46216;52.220;5.134;2022-08-11T16:31:23;102046.72;;;32.60;80.91
60373;BME280;46216;52.220;5.134;2022-08-11T16:33:50;102043.81;;;32.73;80.83
60373;BME280;46216;52.220;5.134;2022-08-11T16:36:17;102043.97;;;32.60;80.84
60373;BME280;46216;52.220;5.134;2022-08-11T16:39:04;102049.56;;;32.54;77.77
60373;BME280;46216;52.220;5.134;2022-08-11T16:41:32;102035.91;;;32.59;83.99